createdAt,value
2023-02-17T00:01:24.202Z,21.10
2023-02-17T00:03:52.752Z,21.10
2023-02-17T00:06:22.431Z,21.10
2023-02-17T00:08:49.688Z,21.10
2023-02-17T00:11:17.879Z,21.00
2023-02-17T00:13:45.684Z,21.10
2023-02-17T00:16:20.140Z,21.00
2023-02-17T00:18:52.047Z,21.00
2023-02-17T00:21:21.253Z,21.00
2023-02-17T00:23:49.743Z,21.00
2023-02-17T00:26:21.204Z,21.00
2023-02-17T00:28:49.278Z,21.00
2023-02-17T00:31:22.876Z,21.00
2023-02-17T00:33:50.537Z,21.00
2023-02-17T00:36:19.942Z,21.00
2023-02-17T00:38:48.912Z,21.00
2023-02-17T00:41:17.890Z,21.00
2023-02-17T00:43:45.323Z,20.90
2023-02-17T00:46:12.565Z,20.90
2023-02-17T00:48:39.911Z,20.90
2023-02-17T00:51:07.342Z,21.00
2023-02-17T00:53:34.478Z,20.90
2023-02-17T00:56:02.199Z,21.00
2023-02-17T00:58:29.517Z,20.90
2023-02-17T01:00:57.429Z,20.90
2023-02-17T01:03:25.419Z,20.90
2023-02-17T01:05:54.652Z,20.90
2023-02-17T01:08:22.826Z,20.90
2023-02-17T01:10:50.786Z,20.90
2023-02-17T01:13:18.582Z,20.90
2023-02-17T01:15:49.079Z,20.90
2023-02-17T01:18:17.506Z,20.90
2023-02-17T01:20:44.846Z,20.90
2023-02-17T01:23:13.616Z,20.90
2023-02-17T01:25:45.824Z,20.90
2023-02-17T01:28:17.753Z,20.90
2023-02-17T01:30:44.947Z,20.90
2023-02-17T01:33:12.035Z,20.90
2023-02-17T01:35:39.098Z,20.90
2023-02-17T01:38:06.267Z,20.90
2023-02-17T01:40:33.358Z,20.90
2023-02-17T01:43:00.465Z,20.90
2023-02-17T01:45:34.637Z,20.90
2023-02-17T01:48:16.886Z,20.90
2023-02-17T01:50:52.444Z,20.90
2023-02-17T01:53:27.283Z,20.90
2023-02-17T01:55:55.776Z,20.80
2023-02-17T01:58:24.929Z,20.90
2023-02-17T02:00:53.808Z,20.80
2023-02-17T02:03:21.404Z,20.80
2023-02-17T02:05:48.569Z,20.80
2023-02-17T02:08:16.262Z,20.80
2023-02-17T02:10:43.442Z,20.80
2023-02-17T02:13:10.791Z,20.80
2023-02-17T02:15:45.188Z,20.80
2023-02-17T02:18:31.874Z,20.80
2023-02-17T02:21:38.661Z,20.80
2023-02-17T02:24:21.476Z,20.80
2023-02-17T02:27:28.290Z,20.80
2023-02-17T02:30:16.844Z,20.80
2023-02-17T02:32:56.100Z,20.80
2023-02-17T02:35:38.030Z,20.80
2023-02-17T02:38:38.669Z,20.80
2023-02-17T02:41:17.890Z,20.80
2023-02-17T02:43:45.089Z,20.80
2023-02-17T02:46:12.292Z,20.80
2023-02-17T02:48:40.517Z,20.80
2023-02-17T02:51:41.423Z,20.80
2023-02-17T02:54:36.925Z,20.70
2023-02-17T02:57:20.776Z,20.70
2023-02-17T03:00:00.196Z,20.80
2023-02-17T03:02:52.637Z,20.70
2023-02-17T03:05:39.406Z,20.80
2023-02-17T03:08:16.118Z,20.70
2023-02-17T03:10:52.696Z,20.70
2023-02-17T03:13:21.303Z,20.70
2023-02-17T03:15:49.003Z,20.70
2023-02-17T03:18:16.964Z,20.70
2023-02-17T03:20:54.514Z,20.70
2023-02-17T03:23:21.919Z,20.70
2023-02-17T03:25:50.382Z,20.70
2023-02-17T03:28:18.695Z,20.70
2023-02-17T03:30:45.872Z,20.80
2023-02-17T03:33:12.990Z,20.80
2023-02-17T03:35:40.126Z,20.80
2023-02-17T03:38:07.235Z,20.80
2023-02-17T03:40:34.324Z,20.80
2023-02-17T03:43:01.447Z,20.80
2023-02-17T03:45:28.615Z,20.80
2023-02-17T03:47:55.692Z,20.70
2023-02-17T03:50:22.813Z,20.70
2023-02-17T03:52:49.946Z,20.70
2023-02-17T03:55:17.122Z,20.70
2023-02-17T03:57:44.320Z,20.70
2023-02-17T04:00:11.816Z,20.70
2023-02-17T04:02:38.853Z,20.70
2023-02-17T04:05:06.270Z,20.70
2023-02-17T04:07:33.394Z,20.70
2023-02-17T04:10:00.516Z,20.70
2023-02-17T04:12:27.640Z,20.70
2023-02-17T04:14:54.733Z,20.70
2023-02-17T04:17:21.816Z,20.70
2023-02-17T04:19:48.938Z,20.70
2023-02-17T04:22:16.090Z,20.70
2023-02-17T04:24:43.288Z,20.70
2023-02-17T04:27:10.357Z,20.70
2023-02-17T04:29:37.447Z,20.70
2023-02-17T04:32:04.868Z,20.70
2023-02-17T04:34:32.203Z,20.60
2023-02-17T04:36:59.331Z,20.60
2023-02-17T04:39:26.429Z,20.60
2023-02-17T04:41:53.513Z,20.60
2023-02-17T04:44:20.660Z,20.60
2023-02-17T04:46:47.780Z,20.60
2023-02-17T04:49:14.842Z,20.60
2023-02-17T04:51:41.985Z,20.60
2023-02-17T04:54:09.146Z,20.60
2023-02-17T04:56:36.354Z,20.60
2023-02-17T04:59:03.420Z,20.60
2023-02-17T05:01:30.477Z,20.60
2023-02-17T05:03:57.614Z,20.60
2023-02-17T05:06:24.739Z,20.60
2023-02-17T05:08:53.832Z,20.60
2023-02-17T05:11:20.934Z,20.60
2023-02-17T05:13:48.173Z,20.60
2023-02-17T05:16:15.279Z,20.60
2023-02-17T05:18:42.427Z,20.60
2023-02-17T05:21:09.581Z,20.60
2023-02-17T05:23:41.397Z,20.60
2023-02-17T05:26:09.854Z,20.60
2023-02-17T05:28:37.444Z,20.60
2023-02-17T05:31:05.063Z,20.60
2023-02-17T05:33:32.297Z,20.60
2023-02-17T05:36:06.368Z,20.60
2023-02-17T05:38:34.041Z,20.60
2023-02-17T05:41:01.287Z,20.60
2023-02-17T05:43:28.596Z,20.50
2023-02-17T05:45:55.756Z,20.50
2023-02-17T05:48:22.869Z,20.50
2023-02-17T05:50:49.965Z,20.50
2023-02-17T05:53:17.100Z,20.50
2023-02-17T05:55:44.191Z,20.40
2023-02-17T05:58:11.509Z,20.40
2023-02-17T06:00:38.738Z,20.40
2023-02-17T06:03:06.354Z,20.50
2023-02-17T06:05:33.515Z,20.50
2023-02-17T06:08:00.661Z,20.50
2023-02-17T06:10:27.831Z,20.50
2023-02-17T06:12:55.028Z,20.60
2023-02-17T06:15:23.012Z,20.60
2023-02-17T06:17:50.268Z,20.70
2023-02-17T06:20:17.793Z,20.70
2023-02-17T06:22:44.892Z,20.80
2023-02-17T06:25:12.183Z,20.80
2023-02-17T06:27:42.311Z,20.90
2023-02-17T06:30:10.563Z,20.90
2023-02-17T06:32:37.637Z,20.90
2023-02-17T06:35:04.870Z,21.00
2023-02-17T06:37:32.053Z,21.00
2023-02-17T06:39:59.687Z,21.10
2023-02-17T06:42:27.272Z,21.10
2023-02-17T06:44:54.424Z,21.20
2023-02-17T06:47:21.530Z,21.30
2023-02-17T06:49:48.708Z,21.30
2023-02-17T06:52:15.980Z,21.40
2023-02-17T06:54:43.071Z,21.40
2023-02-17T06:57:10.289Z,21.40
2023-02-17T06:59:37.421Z,21.50
2023-02-17T07:02:04.879Z,21.60
2023-02-17T07:04:33.374Z,21.60
2023-02-17T07:07:00.507Z,21.60
2023-02-17T07:09:27.843Z,21.70
2023-02-17T07:11:54.990Z,21.70
2023-02-17T07:14:23.994Z,21.80
2023-02-17T07:16:53.431Z,21.90
2023-02-17T07:19:20.822Z,21.90
2023-02-17T07:21:47.902Z,22.00
2023-02-17T07:24:14.984Z,22.10
2023-02-17T07:26:42.242Z,22.10
2023-02-17T07:29:09.897Z,22.20
2023-02-17T07:31:37.277Z,22.20
2023-02-17T07:34:05.332Z,22.30
2023-02-17T07:36:32.542Z,22.40
2023-02-17T07:38:59.782Z,22.40
2023-02-17T07:41:32.960Z,22.50
2023-02-17T07:44:00.330Z,22.60
2023-02-17T07:46:27.893Z,22.60
2023-02-17T07:48:56.564Z,22.60
2023-02-17T07:51:24.645Z,22.70
2023-02-17T07:53:52.241Z,22.80
2023-02-17T07:56:21.850Z,22.80
2023-02-17T07:58:49.508Z,22.90
2023-02-17T08:01:19.675Z,22.90
2023-02-17T08:03:48.577Z,23.00
2023-02-17T08:06:22.480Z,23.00
2023-02-17T08:09:11.724Z,23.10
2023-02-17T08:11:59.744Z,23.10
2023-02-17T08:14:29.546Z,23.10
2023-02-17T08:16:57.999Z,23.20
2023-02-17T08:19:29.987Z,23.20
2023-02-17T08:22:02.004Z,23.20
2023-02-17T08:24:29.334Z,23.30
2023-02-17T08:26:56.443Z,23.30
2023-02-17T08:29:24.294Z,23.30
2023-02-17T08:31:53.637Z,23.30
2023-02-17T08:34:21.287Z,23.30
2023-02-17T08:36:48.454Z,23.30
2023-02-17T08:39:17.607Z,23.40
2023-02-17T08:41:45.856Z,23.40
2023-02-17T08:44:17.024Z,23.40
2023-02-17T08:46:45.332Z,23.40
2023-02-17T08:49:12.486Z,23.50
2023-02-17T08:51:40.551Z,23.50
2023-02-17T08:54:10.419Z,23.60
2023-02-17T08:56:39.346Z,23.60
2023-02-17T08:59:08.309Z,23.60
2023-02-17T09:01:36.591Z,23.70
2023-02-17T09:04:05.362Z,23.70
2023-02-17T09:06:38.446Z,23.80
2023-02-17T09:09:07.659Z,23.80
2023-02-17T09:11:34.965Z,23.90
2023-02-17T09:14:02.716Z,23.90
2023-02-17T09:16:29.869Z,23.90
2023-02-17T09:18:57.068Z,23.90
2023-02-17T09:21:24.362Z,23.90
2023-02-17T09:23:53.900Z,24.00
2023-02-17T09:26:21.600Z,24.00
2023-02-17T09:28:49.436Z,24.00
2023-02-17T09:31:20.922Z,24.10
2023-02-17T09:33:49.066Z,24.10
2023-02-17T09:36:20.247Z,24.10
2023-02-17T09:38:48.265Z,24.10
2023-02-17T09:41:21.357Z,24.20
2023-02-17T09:43:48.608Z,24.20
2023-02-17T09:46:28.988Z,24.20
2023-02-17T09:49:02.608Z,24.20
2023-02-17T09:51:50.178Z,24.30
2023-02-17T09:54:41.697Z,24.30
2023-02-17T09:57:15.872Z,24.30
2023-02-17T09:59:51.481Z,24.30
2023-02-17T10:02:39.709Z,24.30
2023-02-17T10:05:11.070Z,24.40
2023-02-17T10:08:01.738Z,24.40
2023-02-17T10:10:40.047Z,24.40
2023-02-17T10:13:09.681Z,24.50
2023-02-17T10:15:41.600Z,24.50
2023-02-17T10:18:33.030Z,24.60
2023-02-17T10:21:13.019Z,24.60
2023-02-17T10:23:40.665Z,24.60
2023-02-17T10:26:26.401Z,24.70
2023-02-17T10:29:07.383Z,24.70
2023-02-17T10:31:45.889Z,24.80
2023-02-17T10:34:37.303Z,24.80
2023-02-17T10:37:31.170Z,24.90
2023-02-17T10:39:58.820Z,24.90
2023-02-17T10:42:34.099Z,24.90
2023-02-17T10:48:35.052Z,25.00
2023-02-17T10:51:03.297Z,25.00
2023-02-17T10:53:41.338Z,25.00
2023-02-17T10:56:32.547Z,25.00
2023-02-17T10:59:20.879Z,25.10
2023-02-17T11:01:50.016Z,25.10
2023-02-17T11:04:19.745Z,25.10
2023-02-17T11:06:55.007Z,25.10
2023-02-17T11:09:32.028Z,25.10
2023-02-17T11:12:11.074Z,25.10
2023-02-17T11:14:45.711Z,25.20
2023-02-17T11:17:30.382Z,25.20
2023-02-17T11:20:06.869Z,25.20
2023-02-17T11:22:43.717Z,25.20
2023-02-17T11:25:27.461Z,25.20
2023-02-17T11:28:03.406Z,25.20
2023-02-17T11:30:32.617Z,25.30
2023-02-17T11:33:01.285Z,25.30
2023-02-17T11:35:53.851Z,25.20
2023-02-17T11:38:33.223Z,25.20
2023-02-17T11:41:07.028Z,25.20
2023-02-17T11:43:35.405Z,25.20
2023-02-17T11:46:28.033Z,25.20
2023-02-17T11:49:14.445Z,25.20
2023-02-17T11:52:07.318Z,25.20
2023-02-17T11:55:00.437Z,25.20
2023-02-17T11:57:45.907Z,25.30
2023-02-17T12:00:24.696Z,25.30
2023-02-17T12:03:32.544Z,25.30
2023-02-17T12:06:31.181Z,25.30
2023-02-17T12:09:23.672Z,25.30
2023-02-17T12:12:20.402Z,25.40
2023-02-17T12:15:27.496Z,25.40
2023-02-17T12:18:21.317Z,25.40
2023-02-17T12:21:07.020Z,25.40
2023-02-17T12:24:13.811Z,25.40
2023-02-17T12:26:55.967Z,25.40
2023-02-17T12:29:49.106Z,25.40
2023-02-17T12:32:49.070Z,25.40
2023-02-17T12:35:53.642Z,25.40
2023-02-17T12:38:39.156Z,25.50
2023-02-17T12:41:27.646Z,25.50
2023-02-17T12:44:13.534Z,25.50
2023-02-17T12:46:46.696Z,25.50
2023-02-17T12:49:28.276Z,25.50
2023-02-17T12:52:05.638Z,25.50
2023-02-17T12:55:00.568Z,25.50
2023-02-17T12:57:56.003Z,25.60
2023-02-17T13:00:29.331Z,25.60
2023-02-17T13:03:00.653Z,25.60
2023-02-17T13:05:47.604Z,25.60
2023-02-17T13:08:22.594Z,25.60
2023-02-17T13:11:01.537Z,25.60
2023-02-17T13:13:34.231Z,25.60
2023-02-17T13:16:11.410Z,25.60
2023-02-17T13:18:44.573Z,25.60
2023-02-17T13:21:34.608Z,25.60
2023-02-17T13:24:34.301Z,25.50
2023-02-17T13:27:21.587Z,25.50
2023-02-17T13:30:19.545Z,25.50
2023-02-17T13:32:46.917Z,25.50
2023-02-17T13:35:35.621Z,25.50
2023-02-17T13:38:02.836Z,25.50
2023-02-17T13:40:37.013Z,25.50
2023-02-17T13:43:16.276Z,25.50
2023-02-17T13:45:58.497Z,25.50
2023-02-17T13:48:28.351Z,25.50
2023-02-17T13:51:01.506Z,25.50
2023-02-17T13:53:37.826Z,25.40
2023-02-17T13:56:31.069Z,25.40
2023-02-17T13:59:18.416Z,25.40
2023-02-17T14:01:46.606Z,25.40
2023-02-17T14:04:27.615Z,25.40
2023-02-17T14:06:57.227Z,25.40
2023-02-17T14:09:33.716Z,25.40
2023-02-17T14:12:05.903Z,25.40
2023-02-17T14:14:36.706Z,25.40
2023-02-17T14:17:32.665Z,25.40
2023-02-17T14:20:01.041Z,25.40
2023-02-17T14:22:33.153Z,25.40
2023-02-17T14:25:08.815Z,25.40
2023-02-17T14:27:44.910Z,25.30
2023-02-17T14:30:15.290Z,25.30
2023-02-17T14:32:42.472Z,25.30
2023-02-17T14:35:24.306Z,25.20
2023-02-17T14:37:51.596Z,25.20
2023-02-17T14:40:21.840Z,25.20
2023-02-17T14:42:48.952Z,25.20
2023-02-17T14:45:18.165Z,25.20
2023-02-17T14:47:45.822Z,25.20
2023-02-17T14:50:13.880Z,25.20
2023-02-17T14:52:45.034Z,25.10
2023-02-17T14:55:35.209Z,25.10
2023-02-17T14:58:02.197Z,25.10
2023-02-17T15:00:29.309Z,25.10
2023-02-17T15:02:56.473Z,25.10
2023-02-17T15:05:24.013Z,25.10
2023-02-17T15:07:51.216Z,25.10
2023-02-17T15:10:26.453Z,25.00
2023-02-17T15:12:53.956Z,25.00
2023-02-17T15:15:21.608Z,24.90
2023-02-17T15:17:49.320Z,24.90
2023-02-17T15:20:17.317Z,24.90
2023-02-17T15:22:44.716Z,24.80
2023-02-17T15:25:16.740Z,24.80
2023-02-17T15:27:44.565Z,24.70
2023-02-17T15:30:15.551Z,24.70
2023-02-17T15:32:43.270Z,24.70
2023-02-17T15:35:19.330Z,24.60
2023-02-17T15:37:46.453Z,24.60
2023-02-17T15:40:17.072Z,24.50
2023-02-17T15:42:46.238Z,24.50
2023-02-17T15:45:18.378Z,24.50
2023-02-17T15:47:46.979Z,24.40
2023-02-17T15:50:22.005Z,24.40
2023-02-17T15:52:52.390Z,24.30
2023-02-17T15:55:20.739Z,24.30
2023-02-17T15:57:54.763Z,24.30
2023-02-17T16:00:32.267Z,24.20
2023-02-17T16:03:01.448Z,24.10
2023-02-17T16:05:30.312Z,24.10
2023-02-17T16:07:57.369Z,24.10
2023-02-17T16:10:29.723Z,24.00
2023-02-17T16:12:59.806Z,23.90
2023-02-17T16:15:30.641Z,23.90
2023-02-17T16:17:58.968Z,23.90
2023-02-17T16:20:29.075Z,23.80
2023-02-17T16:22:56.219Z,23.70
2023-02-17T16:25:23.764Z,23.70
2023-02-17T16:27:52.658Z,23.70
2023-02-17T16:30:29.499Z,23.60
2023-02-17T16:32:56.867Z,23.60
2023-02-17T16:35:26.758Z,23.60
2023-02-17T16:38:00.318Z,23.50
2023-02-17T16:40:31.044Z,23.50
2023-02-17T16:42:58.290Z,23.40
2023-02-17T16:45:29.712Z,23.40
2023-02-17T16:47:59.788Z,23.40
2023-02-17T16:50:35.124Z,23.40
2023-02-17T16:53:06.552Z,23.30
2023-02-17T16:55:36.029Z,23.30
2023-02-17T16:58:04.754Z,23.30
2023-02-17T17:00:33.788Z,23.30
2023-02-17T17:03:00.875Z,23.30
2023-02-17T17:05:29.403Z,23.20
2023-02-17T17:07:57.201Z,23.20
2023-02-17T17:10:28.238Z,23.20
2023-02-17T17:12:55.479Z,23.20
2023-02-17T17:15:23.038Z,23.10
2023-02-17T17:17:57.269Z,23.10
2023-02-17T17:20:31.220Z,23.10
2023-02-17T17:23:00.231Z,23.10
2023-02-17T17:25:29.309Z,23.00
2023-02-17T17:27:57.128Z,23.00
2023-02-17T17:30:28.206Z,23.00
2023-02-17T17:32:55.681Z,23.00
2023-02-17T17:35:22.818Z,23.00
2023-02-17T17:37:50.315Z,23.00
2023-02-17T17:40:27.201Z,22.90
2023-02-17T17:42:54.800Z,22.90
2023-02-17T17:45:23.544Z,22.90
2023-02-17T17:47:51.002Z,22.90
2023-02-17T17:50:22.027Z,22.90
2023-02-17T17:52:49.298Z,22.90
2023-02-17T17:55:16.544Z,22.80
2023-02-17T17:57:43.686Z,22.80
2023-02-17T18:00:14.109Z,22.80
2023-02-17T18:02:41.201Z,22.80
2023-02-17T18:05:08.628Z,22.80
2023-02-17T18:07:38.471Z,22.80
2023-02-17T18:10:08.212Z,22.70
2023-02-17T18:12:35.559Z,22.80
2023-02-17T18:15:04.527Z,22.70
2023-02-17T18:17:37.848Z,22.70
2023-02-17T18:20:20.794Z,22.70
2023-02-17T18:22:47.876Z,22.70
2023-02-17T18:25:15.064Z,22.70
2023-02-17T18:27:45.163Z,22.60
2023-02-17T18:30:15.770Z,22.60
2023-02-17T18:32:44.301Z,22.60
2023-02-17T18:35:12.044Z,22.60
2023-02-17T18:37:41.218Z,22.60
2023-02-17T18:40:12.696Z,22.60
2023-02-17T18:42:41.491Z,22.60
2023-02-17T18:45:12.376Z,22.60
2023-02-17T18:47:39.510Z,22.60
2023-02-17T18:50:08.109Z,22.60
2023-02-17T18:52:38.660Z,22.60
2023-02-17T18:55:06.496Z,22.60
2023-02-17T18:57:34.328Z,22.60
2023-02-17T19:00:01.521Z,22.50
2023-02-17T19:02:28.993Z,22.60
2023-02-17T19:04:56.595Z,22.50
2023-02-17T19:07:23.846Z,22.50
2023-02-17T19:09:54.716Z,22.50
2023-02-17T19:12:21.949Z,22.50
2023-02-17T19:14:53.310Z,22.50
2023-02-17T19:17:20.563Z,22.50
2023-02-17T19:19:47.799Z,22.40
2023-02-17T19:22:14.987Z,22.50
2023-02-17T19:24:42.356Z,22.40
2023-02-17T19:27:12.481Z,22.50
2023-02-17T19:29:40.943Z,22.40
2023-02-17T19:32:08.104Z,22.40
2023-02-17T19:34:35.933Z,22.40
2023-02-17T19:37:03.063Z,22.40
2023-02-17T19:39:31.394Z,22.40
2023-02-17T19:41:58.393Z,22.40
2023-02-17T19:44:25.460Z,22.40
2023-02-17T19:46:53.929Z,22.40
2023-02-17T19:49:21.562Z,22.40
2023-02-17T19:51:50.076Z,22.30
2023-02-17T19:54:17.392Z,22.40
2023-02-17T19:56:49.084Z,22.30
2023-02-17T19:59:16.310Z,22.30
2023-02-17T20:01:43.538Z,22.30
2023-02-17T20:04:11.196Z,22.30
2023-02-17T20:06:42.576Z,22.30
2023-02-17T20:09:14.341Z,22.20
2023-02-17T20:11:42.019Z,22.30
2023-02-17T20:14:11.163Z,22.30
2023-02-17T20:16:38.931Z,22.20
2023-02-17T20:19:06.845Z,22.30
2023-02-17T20:21:36.047Z,22.20
2023-02-17T20:24:03.184Z,22.30
2023-02-17T20:26:34.203Z,22.20
2023-02-17T20:29:01.803Z,22.20
2023-02-17T20:31:29.153Z,22.20
2023-02-17T20:33:56.973Z,22.20
2023-02-17T20:36:25.114Z,22.20
2023-02-17T20:38:52.412Z,22.20
2023-02-17T20:41:21.424Z,22.20
2023-02-17T20:43:49.670Z,22.20
2023-02-17T20:46:25.964Z,22.20
2023-02-17T20:48:53.962Z,22.20
2023-02-17T20:51:21.674Z,22.20
2023-02-17T20:53:48.819Z,22.20
2023-02-17T20:56:18.685Z,22.20
2023-02-17T20:58:46.412Z,22.20
2023-02-17T21:01:13.955Z,22.20
2023-02-17T21:03:41.341Z,22.10
2023-02-17T21:06:21.582Z,22.20
2023-02-17T21:08:53.375Z,22.20
2023-02-17T21:11:20.917Z,22.20
2023-02-17T21:13:48.891Z,22.20
2023-02-17T21:16:19.054Z,22.20
2023-02-17T21:18:47.209Z,22.10
2023-02-17T21:21:15.233Z,22.10
2023-02-17T21:23:42.487Z,22.10
2023-02-17T21:26:11.183Z,22.10
2023-02-17T21:28:38.255Z,22.10
2023-02-17T21:31:05.906Z,22.10
2023-02-17T21:33:33.556Z,22.10
2023-02-17T21:36:06.191Z,22.10
2023-02-17T21:38:33.443Z,22.10
2023-02-17T21:41:06.427Z,22.10
2023-02-17T21:43:53.700Z,22.10
2023-02-17T21:46:22.152Z,22.10
2023-02-17T21:48:51.139Z,22.10
2023-02-17T21:51:19.762Z,22.10
2023-02-17T21:53:46.952Z,22.00
2023-02-17T21:56:14.275Z,22.10
2023-02-17T21:58:46.262Z,22.00
2023-02-17T22:01:14.185Z,22.00
2023-02-17T22:03:41.524Z,22.10
2023-02-17T22:06:22.364Z,22.00
2023-02-17T22:08:49.629Z,22.00
2023-02-17T22:11:19.258Z,22.00
2023-02-17T22:13:46.921Z,22.00
2023-02-17T22:16:14.803Z,22.00
2023-02-17T22:18:42.196Z,22.00
2023-02-17T22:21:12.346Z,22.00
2023-02-17T22:23:40.760Z,22.00
2023-02-17T22:26:11.419Z,22.00
2023-02-17T22:28:38.956Z,22.00
2023-02-17T22:31:06.978Z,22.00
2023-02-17T22:33:35.032Z,22.00
2023-02-17T22:36:06.522Z,22.00
2023-02-17T22:38:34.213Z,21.90
2023-02-17T22:41:04.896Z,22.00
2023-02-17T22:43:32.118Z,22.00
2023-02-17T22:46:00.108Z,22.00
2023-02-17T22:48:28.781Z,21.90
2023-02-17T22:50:56.064Z,22.00
2023-02-17T22:53:23.544Z,22.00
2023-02-17T22:55:58.085Z,22.00
2023-02-17T22:58:26.527Z,22.00
2023-02-17T23:01:14.800Z,22.00
2023-02-17T23:03:42.110Z,22.00
2023-02-17T23:06:15.927Z,22.00
2023-02-17T23:08:43.427Z,22.00
2023-02-17T23:11:13.409Z,22.00
2023-02-17T23:13:40.816Z,22.00
2023-02-17T23:16:08.986Z,21.90
2023-02-17T23:18:36.737Z,22.00
2023-02-17T23:21:11.269Z,22.00
2023-02-17T23:23:38.532Z,21.90
2023-02-17T23:26:06.502Z,21.90
2023-02-17T23:28:34.496Z,21.90
2023-02-17T23:31:01.663Z,21.90
2023-02-17T23:33:28.777Z,21.90
2023-02-17T23:35:55.822Z,21.90
2023-02-17T23:38:22.962Z,21.90
2023-02-17T23:40:52.089Z,21.90
2023-02-17T23:43:19.944Z,21.90
2023-02-17T23:45:47.116Z,21.90
2023-02-17T23:48:15.073Z,21.90
2023-02-17T23:50:42.514Z,21.90
2023-02-17T23:53:09.767Z,21.90
2023-02-17T23:55:36.976Z,21.90
2023-02-17T23:58:04.051Z,21.90
